createdAt,value
2023-02-23T00:01:47.744Z,15.13
2023-02-23T00:04:21.280Z,14.25
2023-02-23T00:06:52.255Z,15.93
2023-02-23T00:09:25.448Z,15.18
2023-02-23T00:11:57.417Z,14.85
2023-02-23T00:14:31.214Z,15.20
2023-02-23T00:17:01.333Z,15.73
2023-02-23T00:19:37.874Z,16.35
2023-02-23T00:22:07.785Z,15.20
2023-02-23T00:24:38.649Z,16.63
2023-02-23T00:27:08.686Z,15.85
2023-02-23T00:29:39.501Z,15.77
2023-02-23T00:32:09.909Z,16.75
2023-02-23T00:34:42.448Z,15.52
2023-02-23T00:37:12.369Z,15.50
2023-02-23T00:39:42.230Z,15.82
2023-02-23T00:42:13.681Z,15.90
2023-02-23T00:44:43.549Z,15.57
2023-02-23T00:47:13.386Z,15.45
2023-02-23T00:49:47.068Z,15.20
2023-02-23T00:52:19.780Z,15.48
2023-02-23T00:54:49.845Z,15.25
2023-02-23T00:57:19.679Z,15.57
2023-02-23T00:59:49.537Z,16.02
2023-02-23T01:02:19.408Z,16.58
2023-02-23T01:04:52.040Z,15.77
2023-02-23T01:07:25.651Z,15.00
2023-02-23T01:09:55.663Z,16.10
2023-02-23T01:12:25.574Z,16.05
2023-02-23T01:14:55.726Z,16.23
2023-02-23T01:17:25.600Z,16.77
2023-02-23T01:19:58.374Z,16.02
2023-02-23T01:22:28.286Z,16.10
2023-02-23T01:24:58.322Z,16.10
2023-02-23T01:27:29.306Z,15.50
2023-02-23T01:29:59.162Z,16.63
2023-02-23T01:32:29.115Z,17.38
2023-02-23T01:35:01.644Z,17.30
2023-02-23T01:37:31.524Z,15.40
2023-02-23T01:40:01.378Z,17.88
2023-02-23T01:42:34.122Z,17.35
2023-02-23T01:45:25.920Z,17.20
2023-02-23T01:48:01.780Z,16.23
2023-02-23T01:50:45.624Z,17.02
2023-02-23T01:53:15.970Z,16.85
2023-02-23T01:55:46.729Z,16.25
2023-02-23T01:58:21.734Z,15.90
2023-02-23T02:00:56.300Z,17.17
2023-02-23T02:06:04.680Z,16.10
2023-02-23T02:11:26.156Z,16.27
2023-02-23T02:14:00.224Z,16.58
2023-02-23T02:16:45.267Z,16.80
2023-02-23T02:23:01.203Z,17.83
2023-02-23T02:25:49.250Z,17.55
2023-02-23T02:28:45.384Z,16.67
2023-02-23T02:32:01.137Z,16.75
2023-02-23T02:35:00.102Z,16.25
2023-02-23T02:37:56.682Z,16.25
2023-02-23T02:40:34.293Z,17.20
2023-02-23T02:43:11.916Z,16.77
2023-02-23T02:45:53.442Z,17.27
2023-02-23T02:48:34.908Z,17.35
2023-02-23T02:51:17.590Z,16.80
2023-02-23T02:54:00.257Z,16.60
2023-02-23T02:56:33.518Z,16.30
2023-02-23T02:59:03.680Z,17.48
2023-02-23T03:01:46.577Z,17.52
2023-02-23T03:04:38.175Z,17.00
2023-02-23T03:07:31.760Z,16.17
2023-02-23T03:10:24.209Z,17.23
2023-02-23T03:13:21.706Z,17.35
2023-02-23T03:16:15.868Z,16.02
2023-02-23T03:19:23.046Z,16.55
2023-02-23T03:22:10.002Z,16.55
2023-02-23T03:24:59.408Z,15.80
2023-02-23T03:27:59.916Z,17.40
2023-02-23T03:30:53.015Z,16.15
2023-02-23T03:33:46.157Z,16.92
2023-02-23T03:36:35.003Z,17.60
2023-02-23T03:39:29.009Z,16.45
2023-02-23T03:42:13.614Z,17.27
2023-02-23T03:45:01.261Z,16.92
2023-02-23T03:47:49.433Z,15.93
2023-02-23T03:50:38.417Z,17.35
2023-02-23T03:53:22.217Z,17.77
2023-02-23T03:56:11.000Z,16.30
2023-02-23T03:59:00.302Z,17.88
2023-02-23T04:01:48.103Z,17.42
2023-02-23T04:04:30.599Z,17.08
2023-02-23T04:07:16.616Z,18.08
2023-02-23T04:09:59.378Z,17.02
2023-02-23T04:12:49.962Z,17.75
2023-02-23T04:15:25.464Z,17.27
2023-02-23T04:17:58.558Z,18.38
2023-02-23T04:20:30.244Z,17.60
2023-02-23T04:23:00.185Z,18.25
2023-02-23T04:25:30.123Z,17.85
2023-02-23T04:28:00.141Z,18.10
2023-02-23T04:30:30.455Z,18.75
2023-02-23T04:33:03.307Z,17.77
2023-02-23T04:35:33.322Z,20.58
2023-02-23T04:38:03.379Z,19.00
2023-02-23T04:40:33.557Z,18.95
2023-02-23T04:43:03.556Z,16.92
2023-02-23T04:45:33.469Z,20.20
2023-02-23T04:48:06.088Z,19.38
2023-02-23T04:50:36.089Z,18.13
2023-02-23T04:53:06.052Z,17.90
2023-02-23T04:55:36.040Z,19.23
2023-02-23T04:58:06.091Z,18.55
2023-02-23T05:00:36.027Z,19.65
2023-02-23T05:03:08.580Z,18.88
2023-02-23T05:05:38.640Z,19.08
2023-02-23T05:08:09.233Z,19.90
2023-02-23T05:10:40.443Z,21.02
2023-02-23T05:13:11.040Z,19.83
2023-02-23T05:15:40.927Z,19.70
2023-02-23T05:18:13.422Z,18.48
2023-02-23T05:20:47.712Z,19.58
2023-02-23T05:23:17.613Z,19.02
2023-02-23T05:25:47.530Z,18.38
2023-02-23T05:28:17.400Z,19.00
2023-02-23T05:30:47.328Z,18.90
2023-02-23T05:33:19.954Z,19.40
2023-02-23T05:35:49.802Z,19.17
2023-02-23T05:38:21.497Z,18.95
2023-02-23T05:40:51.773Z,20.10
2023-02-23T05:43:21.847Z,20.73
2023-02-23T05:45:51.752Z,19.38
2023-02-23T05:48:24.244Z,19.52
2023-02-23T05:50:54.113Z,19.15
2023-02-23T05:53:23.978Z,20.50
2023-02-23T05:55:53.846Z,18.73
2023-02-23T05:58:23.727Z,19.35
2023-02-23T06:00:54.070Z,19.70
2023-02-23T06:03:27.100Z,19.85
2023-02-23T06:05:59.642Z,19.38
2023-02-23T06:08:29.661Z,19.10
2023-02-23T06:10:59.553Z,20.27
2023-02-23T06:13:29.690Z,18.80
2023-02-23T06:15:59.724Z,19.27
2023-02-23T06:18:33.071Z,24.83
2023-02-23T06:21:04.217Z,21.45
2023-02-23T06:23:35.324Z,20.98
2023-02-23T06:26:05.284Z,19.58
2023-02-23T06:28:35.153Z,19.52
2023-02-23T06:31:05.149Z,16.88
2023-02-23T06:33:37.689Z,18.90
2023-02-23T06:36:08.658Z,18.58
2023-02-23T06:38:38.569Z,18.05
2023-02-23T06:41:12.143Z,18.73
2023-02-23T06:43:42.059Z,18.92
2023-02-23T06:46:11.945Z,18.70
2023-02-23T06:48:44.510Z,17.25
2023-02-23T06:51:14.411Z,18.80
2023-02-23T06:53:44.311Z,17.23
2023-02-23T06:56:14.370Z,17.83
2023-02-23T06:58:44.264Z,18.67
2023-02-23T07:01:14.737Z,17.85
2023-02-23T07:03:47.235Z,18.83
2023-02-23T07:06:17.136Z,18.58
2023-02-23T07:08:47.037Z,18.70
2023-02-23T07:11:19.778Z,19.02
2023-02-23T07:13:49.788Z,17.20
2023-02-23T07:16:19.666Z,17.67
2023-02-23T07:18:52.174Z,18.70
2023-02-23T07:21:22.055Z,18.35
2023-02-23T07:23:51.946Z,19.40
2023-02-23T07:26:21.855Z,18.80
2023-02-23T07:28:54.098Z,19.23
2023-02-23T07:31:24.125Z,20.08
2023-02-23T07:33:57.437Z,19.83
2023-02-23T07:36:27.716Z,18.45
2023-02-23T07:38:57.600Z,19.45
2023-02-23T07:41:27.476Z,19.48
2023-02-23T07:43:57.372Z,19.45
2023-02-23T07:46:27.453Z,19.95
2023-02-23T07:48:59.954Z,21.00
2023-02-23T07:51:29.804Z,20.30
2023-02-23T07:53:59.685Z,19.05
2023-02-23T07:56:29.707Z,20.15
2023-02-23T07:58:59.615Z,19.90
2023-02-23T08:01:29.573Z,18.33
2023-02-23T08:04:02.130Z,19.40
2023-02-23T08:06:33.403Z,18.15
2023-02-23T08:09:04.497Z,18.95
2023-02-23T08:11:34.901Z,18.38
2023-02-23T08:14:04.861Z,18.65
2023-02-23T08:16:36.356Z,18.55
2023-02-23T08:19:08.833Z,19.13
2023-02-23T08:21:39.382Z,19.23
2023-02-23T08:24:10.938Z,18.63
2023-02-23T08:26:40.879Z,18.38
2023-02-23T08:29:11.521Z,18.00
2023-02-23T08:31:41.570Z,20.23
2023-02-23T08:34:14.549Z,19.48
2023-02-23T08:36:45.788Z,20.27
2023-02-23T08:39:16.482Z,19.00
2023-02-23T08:41:46.379Z,20.10
2023-02-23T08:44:16.234Z,19.52
2023-02-23T08:46:46.715Z,19.35
2023-02-23T08:49:19.210Z,19.63
2023-02-23T08:51:50.283Z,18.88
2023-02-23T08:54:20.503Z,18.25
2023-02-23T08:56:50.442Z,18.52
2023-02-23T08:59:20.406Z,18.02
2023-02-23T09:01:50.356Z,17.88
2023-02-23T09:04:22.825Z,18.92
2023-02-23T09:06:52.786Z,18.55
2023-02-23T09:09:22.630Z,17.73
2023-02-23T09:11:52.496Z,18.80
2023-02-23T09:14:22.417Z,19.00
2023-02-23T09:16:52.287Z,18.13
2023-02-23T09:19:24.732Z,18.38
2023-02-23T09:21:54.625Z,18.90
2023-02-23T09:24:24.748Z,20.73
2023-02-23T09:26:54.636Z,18.70
2023-02-23T09:29:24.595Z,17.58
2023-02-23T09:31:58.321Z,18.20
2023-02-23T09:34:30.843Z,19.17
2023-02-23T09:37:00.881Z,18.45
2023-02-23T09:39:37.993Z,18.58
2023-02-23T09:42:28.785Z,18.50
2023-02-23T09:45:12.889Z,19.75
2023-02-23T09:47:59.692Z,19.52
2023-02-23T09:50:35.206Z,18.92
2023-02-23T09:53:07.987Z,18.80
2023-02-23T09:55:38.108Z,18.30
2023-02-23T09:58:12.228Z,19.95
2023-02-23T10:00:54.194Z,20.27
2023-02-23T10:03:31.616Z,19.05
2023-02-23T10:06:09.125Z,18.90
2023-02-23T10:08:53.011Z,18.75
2023-02-23T10:11:32.959Z,18.02
2023-02-23T10:14:24.115Z,18.55
2023-02-23T10:17:10.069Z,20.15
2023-02-23T10:19:48.004Z,19.08
2023-02-23T10:22:23.405Z,20.02
2023-02-23T10:24:58.941Z,19.17
2023-02-23T10:27:35.390Z,18.95
2023-02-23T10:30:06.577Z,19.77
2023-02-23T10:32:44.490Z,18.83
2023-02-23T10:35:17.693Z,19.42
2023-02-23T10:37:50.671Z,20.73
2023-02-23T10:40:24.437Z,20.15
2023-02-23T10:42:55.231Z,19.63
2023-02-23T10:45:27.527Z,19.40
2023-02-23T10:48:01.225Z,18.73
2023-02-23T10:50:31.969Z,18.98
2023-02-23T10:53:16.642Z,19.77
2023-02-23T10:55:48.472Z,19.15
2023-02-23T10:58:22.039Z,20.13
2023-02-23T11:00:57.644Z,19.17
2023-02-23T11:03:33.058Z,19.52
2023-02-23T11:06:03.085Z,17.65
2023-02-23T11:08:38.221Z,18.23
2023-02-23T11:11:20.774Z,17.73
2023-02-23T11:13:52.643Z,19.92
2023-02-23T11:16:25.599Z,19.52
2023-02-23T11:18:59.727Z,19.60
2023-02-23T11:21:33.671Z,19.48
2023-02-23T11:24:25.227Z,19.23
2023-02-23T11:26:58.027Z,18.67
2023-02-23T11:29:35.782Z,20.70
2023-02-23T11:32:13.542Z,19.35
2023-02-23T11:34:44.638Z,17.83
2023-02-23T11:37:24.157Z,18.55
2023-02-23T11:39:59.332Z,16.88
2023-02-23T11:42:33.565Z,14.50
2023-02-23T11:45:09.256Z,14.77
2023-02-23T11:47:44.847Z,14.85
2023-02-23T11:50:27.181Z,15.15
2023-02-23T11:53:04.683Z,16.40
2023-02-23T11:55:40.727Z,15.52
2023-02-23T11:58:14.207Z,13.32
2023-02-23T12:00:44.243Z,14.82
2023-02-23T12:03:25.977Z,14.50
2023-02-23T12:06:00.319Z,15.65
2023-02-23T12:08:40.497Z,19.00
2023-02-23T12:11:16.863Z,20.05
2023-02-23T12:13:52.058Z,21.45
2023-02-23T12:16:26.387Z,16.85
2023-02-23T12:19:02.483Z,15.27
2023-02-23T12:21:38.868Z,17.13
2023-02-23T12:24:22.738Z,15.30
2023-02-23T12:27:02.048Z,19.25
2023-02-23T12:29:40.406Z,18.67
2023-02-23T12:32:17.578Z,15.60
2023-02-23T12:34:55.357Z,13.88
2023-02-23T12:37:38.673Z,16.52
2023-02-23T12:40:18.873Z,15.90
2023-02-23T12:43:05.467Z,16.15
2023-02-23T12:45:44.816Z,15.85
2023-02-23T12:48:30.771Z,16.08
2023-02-23T12:51:04.069Z,16.20
2023-02-23T12:53:40.564Z,13.35
2023-02-23T12:56:28.881Z,16.30
2023-02-23T12:59:22.294Z,14.85
2023-02-23T13:01:58.667Z,17.05
2023-02-23T13:04:49.788Z,16.02
2023-02-23T13:07:26.994Z,17.33
2023-02-23T13:10:08.768Z,21.48
2023-02-23T13:12:55.574Z,17.73
2023-02-23T13:15:44.686Z,17.02
2023-02-23T13:18:22.272Z,18.02
2023-02-23T13:20:58.078Z,15.40
2023-02-23T13:23:35.293Z,15.43
2023-02-23T13:26:16.543Z,15.00
2023-02-23T13:28:56.907Z,17.70
2023-02-23T13:31:34.314Z,16.80
2023-02-23T13:34:07.330Z,17.02
2023-02-23T13:36:38.964Z,15.60
2023-02-23T13:39:45.215Z,17.95
2023-02-23T13:42:39.682Z,20.17
2023-02-23T13:45:37.754Z,16.50
2023-02-23T13:48:25.431Z,19.98
2023-02-23T13:51:01.947Z,16.73
2023-02-23T13:53:42.451Z,15.88
2023-02-23T13:56:14.355Z,15.73
2023-02-23T13:58:50.699Z,17.77
2023-02-23T14:01:24.543Z,15.15
2023-02-23T14:04:03.817Z,15.98
2023-02-23T14:06:36.460Z,11.93
2023-02-23T14:09:14.334Z,21.35
2023-02-23T14:11:51.437Z,16.60
2023-02-23T14:14:47.381Z,17.27
2023-02-23T14:17:42.244Z,15.52
2023-02-23T14:20:29.927Z,16.70
2023-02-23T14:23:29.894Z,16.40
2023-02-23T14:26:36.179Z,18.27
2023-02-23T14:29:31.968Z,15.75
2023-02-23T14:32:06.436Z,14.98
2023-02-23T14:34:54.101Z,16.58
2023-02-23T14:37:34.120Z,15.32
2023-02-23T14:40:13.462Z,16.58
2023-02-23T14:42:44.495Z,16.15
2023-02-23T14:45:27.319Z,15.60
2023-02-23T14:48:02.555Z,15.68
2023-02-23T14:50:35.415Z,17.30
2023-02-23T14:53:16.815Z,17.83
2023-02-23T14:55:46.724Z,15.27
2023-02-23T14:58:26.618Z,15.52
2023-02-23T15:00:56.601Z,21.17
2023-02-23T15:03:26.439Z,17.10
2023-02-23T15:06:00.357Z,21.58
2023-02-23T15:08:34.636Z,20.63
2023-02-23T15:11:07.462Z,16.70
2023-02-23T15:13:39.814Z,18.35
2023-02-23T15:16:15.742Z,17.15
2023-02-23T15:18:47.571Z,19.83
2023-02-23T15:21:23.233Z,17.60
2023-02-23T15:24:07.766Z,17.63
2023-02-23T15:26:40.655Z,20.60
2023-02-23T15:29:17.396Z,20.52
2023-02-23T15:31:52.995Z,20.70
2023-02-23T15:34:25.417Z,22.00
2023-02-23T15:37:01.037Z,28.55
2023-02-23T15:39:41.451Z,23.73
2023-02-23T15:42:17.429Z,22.88
2023-02-23T15:44:48.083Z,29.30
2023-02-23T15:47:28.466Z,22.30
2023-02-23T15:50:11.970Z,26.60
2023-02-23T15:52:49.573Z,25.02
2023-02-23T15:55:29.126Z,25.67
2023-02-23T15:58:01.560Z,28.20
2023-02-23T16:00:37.387Z,34.22
2023-02-23T16:03:09.849Z,29.50
2023-02-23T16:05:47.112Z,34.28
2023-02-23T16:08:24.098Z,35.20
2023-02-23T16:11:01.831Z,26.38
2023-02-23T16:13:31.821Z,32.22
2023-02-23T16:16:02.205Z,31.40
2023-02-23T16:18:42.432Z,30.80
2023-02-23T16:21:21.438Z,27.95
2023-02-23T16:23:54.167Z,33.22
2023-02-23T16:26:30.705Z,34.38
2023-02-23T16:29:03.530Z,33.17
2023-02-23T16:31:46.419Z,31.30
2023-02-23T16:34:27.878Z,34.65
2023-02-23T16:37:03.293Z,35.33
2023-02-23T16:39:34.994Z,36.75
2023-02-23T16:42:07.566Z,34.72
2023-02-23T16:44:43.536Z,39.00
2023-02-23T16:47:43.682Z,41.75
2023-02-23T16:50:20.199Z,41.78
2023-02-23T16:52:54.445Z,39.72
2023-02-23T16:55:28.213Z,39.53
2023-02-23T16:58:05.263Z,37.97
2023-02-23T17:00:36.710Z,39.67
2023-02-23T17:03:13.287Z,40.85
2023-02-23T17:05:43.504Z,39.17
2023-02-23T17:08:13.347Z,40.53
2023-02-23T17:10:45.629Z,40.08
2023-02-23T17:13:22.510Z,41.58
2023-02-23T17:15:56.503Z,42.47
2023-02-23T17:18:30.116Z,40.47
2023-02-23T17:21:03.389Z,40.63
2023-02-23T17:23:42.435Z,42.67
2023-02-23T17:26:14.668Z,42.70
2023-02-23T17:28:47.878Z,42.70
2023-02-23T17:31:22.864Z,43.08
2023-02-23T17:33:55.496Z,42.70
2023-02-23T17:36:27.470Z,44.00
2023-02-23T17:38:58.696Z,43.88
2023-02-23T17:41:29.245Z,44.97
2023-02-23T17:44:02.816Z,44.97
2023-02-23T17:46:32.751Z,43.90
2023-02-23T17:49:02.687Z,44.97
2023-02-23T17:51:32.845Z,44.33
2023-02-23T17:54:02.872Z,46.50
2023-02-23T17:56:33.061Z,45.42
2023-02-23T17:59:05.484Z,44.60
2023-02-23T18:01:35.448Z,45.72
2023-02-23T18:04:05.371Z,45.50
2023-02-23T18:06:35.313Z,47.95
2023-02-23T18:09:06.591Z,48.75
2023-02-23T18:11:37.006Z,47.40
2023-02-23T18:14:09.619Z,48.20
2023-02-23T18:16:39.491Z,49.65
2023-02-23T18:19:09.368Z,51.20
2023-02-23T18:21:40.889Z,51.03
2023-02-23T18:24:11.908Z,50.55
2023-02-23T18:26:41.847Z,50.10
2023-02-23T18:29:14.271Z,51.17
2023-02-23T18:31:44.363Z,48.97
2023-02-23T18:34:14.361Z,48.80
2023-02-23T18:36:45.482Z,49.10
2023-02-23T18:39:16.165Z,51.58
2023-02-23T18:41:46.329Z,50.78
2023-02-23T18:44:21.940Z,49.75
2023-02-23T18:46:53.045Z,48.28
2023-02-23T18:49:25.870Z,48.60
2023-02-23T18:51:55.903Z,49.60
2023-02-23T18:54:26.059Z,48.28
2023-02-23T18:56:56.134Z,47.63
2023-02-23T18:59:28.574Z,47.05
2023-02-23T19:01:58.451Z,48.20
2023-02-23T19:04:28.336Z,47.90
2023-02-23T19:06:58.232Z,44.85
2023-02-23T19:09:28.070Z,44.38
2023-02-23T19:11:58.334Z,46.00
2023-02-23T19:14:48.427Z,45.85
2023-02-23T19:17:19.329Z,45.38
2023-02-23T19:19:49.181Z,43.88
2023-02-23T19:22:19.679Z,45.15
2023-02-23T19:24:49.788Z,38.22
2023-02-23T19:27:20.353Z,43.35
2023-02-23T19:29:52.823Z,43.17
2023-02-23T19:32:22.874Z,42.67
2023-02-23T19:34:55.385Z,44.80
2023-02-23T19:37:25.233Z,44.40
2023-02-23T19:39:55.086Z,43.92
2023-02-23T19:42:24.962Z,42.20
2023-02-23T19:44:57.382Z,44.40
2023-02-23T19:47:27.286Z,40.67
2023-02-23T19:49:57.256Z,41.13
2023-02-23T19:52:28.866Z,41.08
2023-02-23T19:54:58.844Z,38.67
2023-02-23T19:57:28.881Z,42.13
2023-02-23T20:00:01.331Z,39.53
2023-02-23T20:02:31.312Z,35.95
2023-02-23T20:05:01.752Z,37.58
2023-02-23T20:07:31.635Z,36.28
2023-02-23T20:10:05.480Z,37.17
2023-02-23T20:12:35.804Z,35.03
2023-02-23T20:15:10.501Z,32.95
2023-02-23T20:20:13.895Z,34.22
2023-02-23T20:22:45.079Z,33.13
2023-02-23T20:25:16.540Z,31.45
2023-02-23T20:27:47.660Z,31.23
2023-02-23T20:30:21.620Z,30.55
2023-02-23T20:32:51.912Z,30.95
2023-02-23T20:35:26.375Z,28.15
2023-02-23T20:37:56.277Z,25.48
2023-02-23T20:40:27.440Z,24.13
2023-02-23T20:42:57.299Z,22.52
2023-02-23T20:45:29.782Z,21.05
2023-02-23T20:47:59.618Z,19.65
2023-02-23T20:50:34.018Z,18.85
2023-02-23T20:53:04.635Z,17.73
2023-02-23T20:55:35.756Z,19.45
2023-02-23T20:58:05.797Z,19.02
2023-02-23T21:00:38.434Z,19.27
2023-02-23T21:03:08.298Z,21.75
2023-02-23T21:05:42.992Z,22.52
2023-02-23T21:10:43.470Z,22.58
2023-02-23T21:13:13.859Z,24.42
2023-02-23T21:15:48.178Z,25.20
2023-02-23T21:18:18.068Z,24.73
2023-02-23T21:20:48.010Z,24.13
2023-02-23T21:23:20.392Z,24.83
2023-02-23T21:25:53.165Z,25.63
2023-02-23T21:28:23.541Z,24.25
2023-02-23T21:30:55.979Z,23.98
2023-02-23T21:33:25.836Z,24.52
2023-02-23T21:35:58.657Z,24.85
2023-02-23T21:38:29.223Z,24.23
2023-02-23T21:40:59.076Z,25.10
2023-02-23T21:43:29.239Z,24.90
2023-02-23T21:46:01.697Z,25.27
2023-02-23T21:48:31.611Z,25.17
2023-02-23T21:51:05.794Z,24.65
2023-02-23T21:53:37.536Z,25.80
2023-02-23T21:56:12.309Z,25.08
2023-02-23T22:01:23.496Z,25.85
2023-02-23T22:03:55.081Z,24.85
2023-02-23T22:06:28.004Z,25.95
2023-02-23T22:08:58.455Z,25.23
2023-02-23T22:11:30.905Z,27.08
2023-02-23T22:14:02.446Z,26.77
2023-02-23T22:16:38.407Z,26.52
2023-02-23T22:19:09.740Z,26.30
2023-02-23T22:21:44.400Z,28.48
2023-02-23T22:26:50.510Z,26.98
2023-02-23T22:29:20.509Z,26.63
2023-02-23T22:31:53.372Z,28.25
2023-02-23T22:34:23.388Z,27.90
2023-02-23T22:36:53.404Z,27.58
2023-02-23T22:39:23.258Z,26.75
2023-02-23T22:41:53.398Z,28.52
2023-02-23T22:44:24.389Z,27.92
2023-02-23T22:46:56.866Z,29.27
2023-02-23T22:49:27.025Z,26.80
2023-02-23T22:51:56.864Z,27.52
2023-02-23T22:54:26.790Z,28.30
2023-02-23T22:56:56.641Z,28.58
2023-02-23T22:59:28.565Z,28.02
2023-02-23T23:02:01.022Z,28.67
2023-02-23T23:04:33.055Z,27.83
2023-02-23T23:07:02.964Z,28.50
2023-02-23T23:09:33.167Z,28.25
2023-02-23T23:12:03.204Z,27.73
2023-02-23T23:14:33.209Z,26.10
2023-02-23T23:17:05.764Z,27.67
2023-02-23T23:19:39.143Z,28.13
2023-02-23T23:22:13.577Z,27.85
2023-02-23T23:24:46.283Z,27.30
2023-02-23T23:27:19.796Z,27.30
2023-02-23T23:29:50.702Z,29.33
2023-02-23T23:32:27.803Z,27.17
2023-02-23T23:34:59.908Z,26.63
2023-02-23T23:37:30.340Z,26.90
2023-02-23T23:40:02.157Z,26.17
2023-02-23T23:42:31.999Z,26.27
2023-02-23T23:45:02.067Z,24.95
2023-02-23T23:47:34.582Z,24.48
2023-02-23T23:50:10.817Z,24.85
2023-02-23T23:52:43.511Z,23.60
2023-02-23T23:55:15.181Z,24.33
2023-02-23T23:57:45.411Z,24.33
